sensor_id;sensor_type;location;lat;lon;timestamp;temperature;humidity
38938;DHT22;24727;51.974;20.868;2023-08-20T00:00:48;20.90;1.00
38938;DHT22;24727;51.974;20.868;2023-08-20T00:03:14;21.00;1.00
38938;DHT22;24727;51.974;20.868;2023-08-20T00:05:41;21.10;1.00
38938;DHT22;24727;51.974;20.868;2023-08-20T00:08:14;21.20;1.00
38938;DHT22;24727;51.974;20.868;2023-08-20T00:10:42;21.30;1.00
38938;DHT22;24727;51.974;20.868;2023-08-20T00:13:07;21.40;1.00
38938;DHT22;24727;51.974;20.868;2023-08-20T00:15:33;21.30;1.00
38938;DHT22;24727;51.974;20.868;2023-08-20T00:18:00;21.30;1.00
38938;DHT22;24727;51.974;20.868;2023-08-20T00:20:26;21.20;1.00
38938;DHT22;24727;51.974;20.868;2023-08-20T00:22:54;20.90;1.00
38938;DHT22;24727;51.974;20.868;2023-08-20T00:25:20;20.90;1.00
38938;DHT22;24727;51.974;20.868;2023-08-20T00:27:47;21.00;1.00
38938;DHT22;24727;51.974;20.868;2023-08-20T00:30:13;21.00;1.00
38938;DHT22;24727;51.974;20.868;2023-08-20T00:32:39;21.10;1.00
38938;DHT22;24727;51.974;20.868;2023-08-20T00:35:12;21.10;1.00
38938;DHT22;24727;51.974;20.868;2023-08-20T00:37:38;21.00;1.00
38938;DHT22;24727;51.974;20.868;2023-08-20T00:40:10;20.70;1.00
38938;DHT22;24727;51.974;20.868;2023-08-20T00:42:38;20.50;1.00
38938;DHT22;24727;51.974;20.868;2023-08-20T00:45:05;20.60;1.00
38938;DHT22;24727;51.974;20.868;2023-08-20T00:47:32;20.70;1.00
38938;DHT22;24727;51.974;20.868;2023-08-20T00:49:58;20.80;1.00
38938;DHT22;24727;51.974;20.868;2023-08-20T00:52:24;20.80;1.00
38938;DHT22;24727;51.974;20.868;2023-08-20T00:54:51;20.80;1.00
38938;DHT22;24727;51.974;20.868;2023-08-20T00:57:18;20.80;1.00
38938;DHT22;24727;51.974;20.868;2023-08-20T00:59:47;20.70;1.00
38938;DHT22;24727;51.974;20.868;2023-08-20T01:02:15;20.80;1.00
38938;DHT22;24727;51.974;20.868;2023-08-20T01:04:46;20.80;1.00
38938;DHT22;24727;51.974;20.868;2023-08-20T01:07:30;20.80;1.00
38938;DHT22;24727;51.974;20.868;2023-08-20T01:12:36;20.70;1.00
38938;DHT22;24727;51.974;20.868;2023-08-20T01:15:04;20.70;1.00
38938;DHT22;24727;51.974;20.868;2023-08-20T01:17:31;20.60;1.00
38938;DHT22;24727;51.974;20.868;2023-08-20T01:19:57;20.50;1.00
38938;DHT22;24727;51.974;20.868;2023-08-20T01:25:21;20.50;1.00
38938;DHT22;24727;51.974;20.868;2023-08-20T01:30:35;20.30;1.00
38938;DHT22;24727;51.974;20.868;2023-08-20T01:33:02;20.20;1.00
38938;DHT22;24727;51.974;20.868;2023-08-20T01:35:29;20.20;1.00
38938;DHT22;24727;51.974;20.868;2023-08-20T01:37:55;20.20;1.00
38938;DHT22;24727;51.974;20.868;2023-08-20T01:40:22;20.20;1.00
38938;DHT22;24727;51.974;20.868;2023-08-20T01:42:49;20.20;1.00
38938;DHT22;24727;51.974;20.868;2023-08-20T01:45:15;20.20;1.00
38938;DHT22;24727;51.974;20.868;2023-08-20T01:47:42;20.10;1.00
38938;DHT22;24727;51.974;20.868;2023-08-20T01:50:09;20.20;1.00
38938;DHT22;24727;51.974;20.868;2023-08-20T01:52:35;20.20;1.00
38938;DHT22;24727;51.974;20.868;2023-08-20T01:55:01;20.20;1.00
38938;DHT22;24727;51.974;20.868;2023-08-20T01:57:29;20.30;1.00
38938;DHT22;24727;51.974;20.868;2023-08-20T01:59:55;20.30;1.00
38938;DHT22;24727;51.974;20.868;2023-08-20T02:02:21;20.40;1.00
38938;DHT22;24727;51.974;20.868;2023-08-20T02:04:47;20.40;1.00
38938;DHT22;24727;51.974;20.868;2023-08-20T02:07:14;20.30;1.00
38938;DHT22;24727;51.974;20.868;2023-08-20T02:09:40;20.20;1.00
38938;DHT22;24727;51.974;20.868;2023-08-20T02:12:07;20.10;1.00
38938;DHT22;24727;51.974;20.868;2023-08-20T02:14:34;20.10;1.00
38938;DHT22;24727;51.974;20.868;2023-08-20T02:17:04;20.10;1.00
38938;DHT22;24727;51.974;20.868;2023-08-20T02:19:30;20.10;1.00
38938;DHT22;24727;51.974;20.868;2023-08-20T02:21:57;20.10;1.00
38938;DHT22;24727;51.974;20.868;2023-08-20T02:24:24;20.00;1.00
38938;DHT22;24727;51.974;20.868;2023-08-20T02:26:50;20.10;1.00
38938;DHT22;24727;51.974;20.868;2023-08-20T02:29:17;20.10;1.00
38938;DHT22;24727;51.974;20.868;2023-08-20T02:31:43;20.10;1.00
38938;DHT22;24727;51.974;20.868;2023-08-20T02:34:10;20.00;1.00
38938;DHT22;24727;51.974;20.868;2023-08-20T02:36:37;20.00;1.00
38938;DHT22;24727;51.974;20.868;2023-08-20T02:39:03;20.10;1.00
38938;DHT22;24727;51.974;20.868;2023-08-20T02:41:34;20.10;1.00
38938;DHT22;24727;51.974;20.868;2023-08-20T02:44:04;20.10;1.00
38938;DHT22;24727;51.974;20.868;2023-08-20T02:46:31;20.00;1.00
38938;DHT22;24727;51.974;20.868;2023-08-20T02:48:58;19.90;1.00
38938;DHT22;24727;51.974;20.868;2023-08-20T02:51:23;19.90;1.00
38938;DHT22;24727;51.974;20.868;2023-08-20T02:53:49;19.90;1.00
38938;DHT22;24727;51.974;20.868;2023-08-20T02:56:18;19.90;1.00
38938;DHT22;24727;51.974;20.868;2023-08-20T02:58:44;20.00;1.00
38938;DHT22;24727;51.974;20.868;2023-08-20T03:01:23;20.00;1.00
38938;DHT22;24727;51.974;20.868;2023-08-20T03:03:49;19.90;1.00
38938;DHT22;24727;51.974;20.868;2023-08-20T03:06:17;19.80;1.00
38938;DHT22;24727;51.974;20.868;2023-08-20T03:08:42;19.80;1.00
38938;DHT22;24727;51.974;20.868;2023-08-20T03:11:08;19.80;1.00
38938;DHT22;24727;51.974;20.868;2023-08-20T03:13:35;19.70;1.00
38938;DHT22;24727;51.974;20.868;2023-08-20T03:16:08;19.60;1.00
38938;DHT22;24727;51.974;20.868;2023-08-20T03:18:36;19.60;1.00
38938;DHT22;24727;51.974;20.868;2023-08-20T03:21:02;19.50;1.00
38938;DHT22;24727;51.974;20.868;2023-08-20T03:23:30;19.40;1.00
38938;DHT22;24727;51.974;20.868;2023-08-20T03:25:59;19.40;1.00
38938;DHT22;24727;51.974;20.868;2023-08-20T03:28:26;19.30;1.00
38938;DHT22;24727;51.974;20.868;2023-08-20T03:30:52;19.30;1.00
38938;DHT22;24727;51.974;20.868;2023-08-20T03:33:17;19.20;1.00
38938;DHT22;24727;51.974;20.868;2023-08-20T03:35:45;19.20;1.00
38938;DHT22;24727;51.974;20.868;2023-08-20T03:38:11;19.10;1.00
38938;DHT22;24727;51.974;20.868;2023-08-20T03:40:37;19.10;1.00
38938;DHT22;24727;51.974;20.868;2023-08-20T03:43:03;18.90;1.00
38938;DHT22;24727;51.974;20.868;2023-08-20T03:45:30;18.90;1.00
38938;DHT22;24727;51.974;20.868;2023-08-20T03:47:57;18.80;1.00
38938;DHT22;24727;51.974;20.868;2023-08-20T03:50:23;18.90;1.00
38938;DHT22;24727;51.974;20.868;2023-08-20T03:52:50;19.00;1.00
38938;DHT22;24727;51.974;20.868;2023-08-20T03:55:16;19.00;1.00
38938;DHT22;24727;51.974;20.868;2023-08-20T03:57:43;19.10;1.00
38938;DHT22;24727;51.974;20.868;2023-08-20T04:00:10;19.20;1.00
38938;DHT22;24727;51.974;20.868;2023-08-20T04:02:36;19.30;1.00
38938;DHT22;24727;51.974;20.868;2023-08-20T04:05:03;19.40;1.00
38938;DHT22;24727;51.974;20.868;2023-08-20T04:07:31;19.40;1.00
38938;DHT22;24727;51.974;20.868;2023-08-20T04:09:56;19.50;1.00
38938;DHT22;24727;51.974;20.868;2023-08-20T04:12:22;19.50;1.00
38938;DHT22;24727;51.974;20.868;2023-08-20T04:14:48;19.60;1.00
38938;DHT22;24727;51.974;20.868;2023-08-20T04:17:14;19.70;1.00
38938;DHT22;24727;51.974;20.868;2023-08-20T04:19:40;19.70;1.00
38938;DHT22;24727;51.974;20.868;2023-08-20T04:22:06;19.80;1.00
38938;DHT22;24727;51.974;20.868;2023-08-20T04:24:32;19.90;1.00
38938;DHT22;24727;51.974;20.868;2023-08-20T04:26:58;20.00;1.00
38938;DHT22;24727;51.974;20.868;2023-08-20T04:29:24;20.10;1.00
38938;DHT22;24727;51.974;20.868;2023-08-20T04:31:50;20.20;1.00
38938;DHT22;24727;51.974;20.868;2023-08-20T04:34:16;20.30;1.00
38938;DHT22;24727;51.974;20.868;2023-08-20T04:36:41;20.40;1.00
38938;DHT22;24727;51.974;20.868;2023-08-20T04:39:09;20.40;1.00
38938;DHT22;24727;51.974;20.868;2023-08-20T04:41:35;20.50;1.00
38938;DHT22;24727;51.974;20.868;2023-08-20T04:44:01;20.60;1.00
38938;DHT22;24727;51.974;20.868;2023-08-20T04:46:27;20.80;1.00
38938;DHT22;24727;51.974;20.868;2023-08-20T04:48:54;20.90;1.00
38938;DHT22;24727;51.974;20.868;2023-08-20T04:51:21;21.00;1.00
38938;DHT22;24727;51.974;20.868;2023-08-20T04:53:47;21.10;1.00
38938;DHT22;24727;51.974;20.868;2023-08-20T04:56:13;21.20;1.00
38938;DHT22;24727;51.974;20.868;2023-08-20T04:58:39;21.30;1.00
38938;DHT22;24727;51.974;20.868;2023-08-20T05:01:05;21.50;1.00
38938;DHT22;24727;51.974;20.868;2023-08-20T05:03:31;21.50;1.00
38938;DHT22;24727;51.974;20.868;2023-08-20T05:05:57;21.60;1.00
38938;DHT22;24727;51.974;20.868;2023-08-20T05:08:23;21.70;1.00
38938;DHT22;24727;51.974;20.868;2023-08-20T05:10:50;21.90;1.00
38938;DHT22;24727;51.974;20.868;2023-08-20T05:13:17;22.00;1.00
38938;DHT22;24727;51.974;20.868;2023-08-20T05:15:44;22.20;1.00
38938;DHT22;24727;51.974;20.868;2023-08-20T05:18:11;22.30;1.00
38938;DHT22;24727;51.974;20.868;2023-08-20T05:20:40;22.40;1.00
38938;DHT22;24727;51.974;20.868;2023-08-20T05:23:06;22.40;1.00
38938;DHT22;24727;51.974;20.868;2023-08-20T05:25:33;22.40;1.00
38938;DHT22;24727;51.974;20.868;2023-08-20T05:27:59;22.50;1.00
38938;DHT22;24727;51.974;20.868;2023-08-20T05:30:27;22.60;1.00
38938;DHT22;24727;51.974;20.868;2023-08-20T05:32:53;22.70;1.00
38938;DHT22;24727;51.974;20.868;2023-08-20T05:35:19;22.90;1.00
38938;DHT22;24727;51.974;20.868;2023-08-20T05:37:45;23.00;1.00
38938;DHT22;24727;51.974;20.868;2023-08-20T05:40:11;23.10;1.00
38938;DHT22;24727;51.974;20.868;2023-08-20T05:42:37;23.30;1.00
38938;DHT22;24727;51.974;20.868;2023-08-20T05:45:04;23.40;1.00
38938;DHT22;24727;51.974;20.868;2023-08-20T05:47:31;23.60;1.00
38938;DHT22;24727;51.974;20.868;2023-08-20T05:49:57;23.80;1.00
38938;DHT22;24727;51.974;20.868;2023-08-20T05:52:23;24.00;1.00
38938;DHT22;24727;51.974;20.868;2023-08-20T05:54:49;24.10;1.00
38938;DHT22;24727;51.974;20.868;2023-08-20T05:57:14;24.20;1.00
38938;DHT22;24727;51.974;20.868;2023-08-20T05:59:40;24.40;1.00
38938;DHT22;24727;51.974;20.868;2023-08-20T06:02:06;24.50;1.00
38938;DHT22;24727;51.974;20.868;2023-08-20T06:04:32;24.70;1.00
38938;DHT22;24727;51.974;20.868;2023-08-20T06:06:58;25.00;1.00
38938;DHT22;24727;51.974;20.868;2023-08-20T06:09:31;25.10;1.00
38938;DHT22;24727;51.974;20.868;2023-08-20T06:11:57;25.20;1.00
38938;DHT22;24727;51.974;20.868;2023-08-20T06:14:23;25.30;1.00
38938;DHT22;24727;51.974;20.868;2023-08-20T06:16:50;25.40;1.00
38938;DHT22;24727;51.974;20.868;2023-08-20T06:19:17;25.60;1.00
38938;DHT22;24727;51.974;20.868;2023-08-20T06:21:44;25.90;1.00
38938;DHT22;24727;51.974;20.868;2023-08-20T06:24:10;26.10;1.00
38938;DHT22;24727;51.974;20.868;2023-08-20T06:26:42;26.20;1.00
38938;DHT22;24727;51.974;20.868;2023-08-20T06:29:09;26.50;1.00
38938;DHT22;24727;51.974;20.868;2023-08-20T06:31:35;26.60;1.00
38938;DHT22;24727;51.974;20.868;2023-08-20T06:34:02;26.90;1.00
38938;DHT22;24727;51.974;20.868;2023-08-20T06:36:29;27.10;1.00
38938;DHT22;24727;51.974;20.868;2023-08-20T06:38:54;27.40;1.00
38938;DHT22;24727;51.974;20.868;2023-08-20T06:41:23;27.70;1.00
38938;DHT22;24727;51.974;20.868;2023-08-20T06:43:49;27.90;1.00
38938;DHT22;24727;51.974;20.868;2023-08-20T06:46:21;28.00;1.00
38938;DHT22;24727;51.974;20.868;2023-08-20T06:48:49;28.30;1.00
38938;DHT22;24727;51.974;20.868;2023-08-20T06:51:19;28.50;1.00
38938;DHT22;24727;51.974;20.868;2023-08-20T06:53:45;28.50;1.00
38938;DHT22;24727;51.974;20.868;2023-08-20T06:56:11;28.50;1.00
38938;DHT22;24727;51.974;20.868;2023-08-20T06:58:42;28.70;1.00
38938;DHT22;24727;51.974;20.868;2023-08-20T07:01:08;28.70;1.00
38938;DHT22;24727;51.974;20.868;2023-08-20T07:03:35;28.80;1.00
38938;DHT22;24727;51.974;20.868;2023-08-20T07:06:01;29.10;1.00
38938;DHT22;24727;51.974;20.868;2023-08-20T07:08:28;29.30;1.00
38938;DHT22;24727;51.974;20.868;2023-08-20T07:10:54;29.60;1.00
38938;DHT22;24727;51.974;20.868;2023-08-20T07:13:21;29.80;1.00
38938;DHT22;24727;51.974;20.868;2023-08-20T07:15:47;29.90;1.00
38938;DHT22;24727;51.974;20.868;2023-08-20T07:18:13;30.10;1.00
38938;DHT22;24727;51.974;20.868;2023-08-20T07:20:42;30.20;1.00
38938;DHT22;24727;51.974;20.868;2023-08-20T07:23:10;30.20;1.00
38938;DHT22;24727;51.974;20.868;2023-08-20T07:25:37;29.70;1.00
38938;DHT22;24727;51.974;20.868;2023-08-20T07:28:05;30.00;1.00
38938;DHT22;24727;51.974;20.868;2023-08-20T07:30:32;30.50;1.00
38938;DHT22;24727;51.974;20.868;2023-08-20T07:33:01;30.80;1.00
38938;DHT22;24727;51.974;20.868;2023-08-20T07:35:28;30.50;1.00
38938;DHT22;24727;51.974;20.868;2023-08-20T07:37:53;30.30;1.00
38938;DHT22;24727;51.974;20.868;2023-08-20T07:40:20;30.30;1.00
38938;DHT22;24727;51.974;20.868;2023-08-20T07:42:46;30.30;1.00
38938;DHT22;24727;51.974;20.868;2023-08-20T07:45:12;30.50;1.00
38938;DHT22;24727;51.974;20.868;2023-08-20T07:47:40;30.80;1.00
38938;DHT22;24727;51.974;20.868;2023-08-20T07:50:06;31.30;1.00
38938;DHT22;24727;51.974;20.868;2023-08-20T07:52:32;31.20;1.00
38938;DHT22;24727;51.974;20.868;2023-08-20T07:54:59;31.60;1.00
38938;DHT22;24727;51.974;20.868;2023-08-20T07:57:25;31.50;1.00
38938;DHT22;24727;51.974;20.868;2023-08-20T07:59:51;31.60;1.00
38938;DHT22;24727;51.974;20.868;2023-08-20T08:02:18;31.70;1.00
38938;DHT22;24727;51.974;20.868;2023-08-20T08:04:44;32.10;1.00
38938;DHT22;24727;51.974;20.868;2023-08-20T08:07:10;32.60;1.00
38938;DHT22;24727;51.974;20.868;2023-08-20T08:09:37;32.30;1.00
38938;DHT22;24727;51.974;20.868;2023-08-20T08:12:03;32.60;1.00
38938;DHT22;24727;51.974;20.868;2023-08-20T08:14:29;32.80;1.00
38938;DHT22;24727;51.974;20.868;2023-08-20T08:16:56;32.80;1.00
38938;DHT22;24727;51.974;20.868;2023-08-20T08:19:23;32.30;1.00
38938;DHT22;24727;51.974;20.868;2023-08-20T08:21:49;32.20;1.00
38938;DHT22;24727;51.974;20.868;2023-08-20T08:24:16;32.00;1.00
38938;DHT22;24727;51.974;20.868;2023-08-20T08:26:42;31.60;1.00
38938;DHT22;24727;51.974;20.868;2023-08-20T08:29:09;32.00;1.00
38938;DHT22;24727;51.974;20.868;2023-08-20T08:31:35;32.20;1.00
38938;DHT22;24727;51.974;20.868;2023-08-20T08:34:02;32.80;1.00
38938;DHT22;24727;51.974;20.868;2023-08-20T08:36:31;33.00;1.00
38938;DHT22;24727;51.974;20.868;2023-08-20T08:38:57;32.10;1.00
38938;DHT22;24727;51.974;20.868;2023-08-20T08:41:25;30.80;1.00
38938;DHT22;24727;51.974;20.868;2023-08-20T08:43:53;30.50;1.00
38938;DHT22;24727;51.974;20.868;2023-08-20T08:46:20;30.80;1.00
38938;DHT22;24727;51.974;20.868;2023-08-20T08:48:46;31.40;1.00
38938;DHT22;24727;51.974;20.868;2023-08-20T08:51:14;32.30;1.00
38938;DHT22;24727;51.974;20.868;2023-08-20T08:53:42;32.90;1.00
38938;DHT22;24727;51.974;20.868;2023-08-20T08:56:10;32.30;1.00
38938;DHT22;24727;51.974;20.868;2023-08-20T08:58:36;30.90;1.00
38938;DHT22;24727;51.974;20.868;2023-08-20T09:01:02;31.20;1.00
38938;DHT22;24727;51.974;20.868;2023-08-20T09:03:28;31.80;1.00
38938;DHT22;24727;51.974;20.868;2023-08-20T09:05:56;32.30;1.00
38938;DHT22;24727;51.974;20.868;2023-08-20T09:08:31;32.40;1.00
38938;DHT22;24727;51.974;20.868;2023-08-20T09:11:00;32.60;1.00
38938;DHT22;24727;51.974;20.868;2023-08-20T09:13:38;32.60;1.00
38938;DHT22;24727;51.974;20.868;2023-08-20T09:16:08;32.30;1.00
38938;DHT22;24727;51.974;20.868;2023-08-20T09:18:45;32.60;1.00
38938;DHT22;24727;51.974;20.868;2023-08-20T09:21:13;32.60;1.00
38938;DHT22;24727;51.974;20.868;2023-08-20T09:23:40;31.60;1.00
38938;DHT22;24727;51.974;20.868;2023-08-20T09:26:07;30.70;1.00
38938;DHT22;24727;51.974;20.868;2023-08-20T09:28:43;30.30;1.00
38938;DHT22;24727;51.974;20.868;2023-08-20T09:31:11;29.80;1.00
38938;DHT22;24727;51.974;20.868;2023-08-20T09:33:58;30.10;1.00
38938;DHT22;24727;51.974;20.868;2023-08-20T09:36:32;30.70;1.00
38938;DHT22;24727;51.974;20.868;2023-08-20T09:38:58;30.60;1.00
38938;DHT22;24727;51.974;20.868;2023-08-20T09:41:25;30.10;1.00
38938;DHT22;24727;51.974;20.868;2023-08-20T09:43:57;30.00;1.00
38938;DHT22;24727;51.974;20.868;2023-08-20T09:46:27;30.60;1.00
38938;DHT22;24727;51.974;20.868;2023-08-20T09:48:56;31.50;1.00
38938;DHT22;24727;51.974;20.868;2023-08-20T09:51:33;32.50;1.00
38938;DHT22;24727;51.974;20.868;2023-08-20T09:54:37;32.50;1.00
38938;DHT22;24727;51.974;20.868;2023-08-20T09:57:08;31.40;1.00
38938;DHT22;24727;51.974;20.868;2023-08-20T09:59:39;31.30;1.00
38938;DHT22;24727;51.974;20.868;2023-08-20T10:02:11;30.90;1.00
38938;DHT22;24727;51.974;20.868;2023-08-20T10:04:40;30.40;1.00
38938;DHT22;24727;51.974;20.868;2023-08-20T10:07:08;30.40;1.00
38938;DHT22;24727;51.974;20.868;2023-08-20T10:09:34;30.30;1.00
38938;DHT22;24727;51.974;20.868;2023-08-20T10:12:01;29.90;1.00
38938;DHT22;24727;51.974;20.868;2023-08-20T10:14:27;30.00;1.00
38938;DHT22;24727;51.974;20.868;2023-08-20T10:16:54;30.40;1.00
38938;DHT22;24727;51.974;20.868;2023-08-20T10:19:22;31.10;1.00
38938;DHT22;24727;51.974;20.868;2023-08-20T10:21:52;31.90;1.00
38938;DHT22;24727;51.974;20.868;2023-08-20T10:24:18;31.80;1.00
38938;DHT22;24727;51.974;20.868;2023-08-20T10:26:49;31.60;1.00
38938;DHT22;24727;51.974;20.868;2023-08-20T10:29:37;30.70;1.00
38938;DHT22;24727;51.974;20.868;2023-08-20T10:32:09;31.70;1.00
38938;DHT22;24727;51.974;20.868;2023-08-20T10:34:39;32.80;1.00
38938;DHT22;24727;51.974;20.868;2023-08-20T10:37:14;33.30;1.00
38938;DHT22;24727;51.974;20.868;2023-08-20T10:39:41;32.60;1.00
38938;DHT22;24727;51.974;20.868;2023-08-20T10:45:08;31.40;1.00
38938;DHT22;24727;51.974;20.868;2023-08-20T10:47:42;31.10;1.00
38938;DHT22;24727;51.974;20.868;2023-08-20T10:50:11;32.10;1.00
38938;DHT22;24727;51.974;20.868;2023-08-20T10:52:41;32.80;1.00
38938;DHT22;24727;51.974;20.868;2023-08-20T10:55:13;33.70;1.00
38938;DHT22;24727;51.974;20.868;2023-08-20T10:57:41;33.60;1.00
38938;DHT22;24727;51.974;20.868;2023-08-20T11:00:07;32.00;1.00
38938;DHT22;24727;51.974;20.868;2023-08-20T11:02:41;31.10;1.00
38938;DHT22;24727;51.974;20.868;2023-08-20T11:05:19;31.50;1.00
38938;DHT22;24727;51.974;20.868;2023-08-20T11:07:48;31.30;1.00
38938;DHT22;24727;51.974;20.868;2023-08-20T11:10:16;31.00;1.00
38938;DHT22;24727;51.974;20.868;2023-08-20T11:12:45;30.80;1.00
38938;DHT22;24727;51.974;20.868;2023-08-20T11:15:11;30.60;1.00
38938;DHT22;24727;51.974;20.868;2023-08-20T11:17:49;30.80;1.00
38938;DHT22;24727;51.974;20.868;2023-08-20T11:20:16;30.70;1.00
38938;DHT22;24727;51.974;20.868;2023-08-20T11:22:46;31.10;1.00
38938;DHT22;24727;51.974;20.868;2023-08-20T11:25:13;30.50;1.00
38938;DHT22;24727;51.974;20.868;2023-08-20T11:27:46;30.80;1.00
38938;DHT22;24727;51.974;20.868;2023-08-20T11:30:12;31.30;1.00
38938;DHT22;24727;51.974;20.868;2023-08-20T11:32:38;31.40;1.00
38938;DHT22;24727;51.974;20.868;2023-08-20T11:35:06;31.00;1.00
38938;DHT22;24727;51.974;20.868;2023-08-20T11:37:33;30.90;1.00
38938;DHT22;24727;51.974;20.868;2023-08-20T11:40:00;31.40;1.00
38938;DHT22;24727;51.974;20.868;2023-08-20T11:42:27;31.70;1.00
38938;DHT22;24727;51.974;20.868;2023-08-20T11:44:56;31.50;1.00
38938;DHT22;24727;51.974;20.868;2023-08-20T11:47:23;31.40;1.00
38938;DHT22;24727;51.974;20.868;2023-08-20T11:50:02;30.80;1.00
38938;DHT22;24727;51.974;20.868;2023-08-20T11:52:32;30.60;1.00
38938;DHT22;24727;51.974;20.868;2023-08-20T11:54:59;30.20;1.00
38938;DHT22;24727;51.974;20.868;2023-08-20T11:57:28;30.50;1.00
38938;DHT22;24727;51.974;20.868;2023-08-20T12:00:00;30.90;1.00
38938;DHT22;24727;51.974;20.868;2023-08-20T12:02:30;31.30;1.00
38938;DHT22;24727;51.974;20.868;2023-08-20T12:04:57;32.40;1.00
38938;DHT22;24727;51.974;20.868;2023-08-20T12:07:27;33.50;1.00
38938;DHT22;24727;51.974;20.868;2023-08-20T12:09:56;34.00;1.00
38938;DHT22;24727;51.974;20.868;2023-08-20T12:12:23;33.30;1.00
38938;DHT22;24727;51.974;20.868;2023-08-20T12:14:49;33.60;1.00
38938;DHT22;24727;51.974;20.868;2023-08-20T12:17:18;34.00;1.00
38938;DHT22;24727;51.974;20.868;2023-08-20T12:19:45;34.20;1.00
38938;DHT22;24727;51.974;20.868;2023-08-20T12:22:12;35.00;1.00
38938;DHT22;24727;51.974;20.868;2023-08-20T12:24:39;35.40;1.00
38938;DHT22;24727;51.974;20.868;2023-08-20T12:27:05;34.50;1.00
38938;DHT22;24727;51.974;20.868;2023-08-20T12:29:32;34.20;1.00
38938;DHT22;24727;51.974;20.868;2023-08-20T12:31:58;33.40;1.00
38938;DHT22;24727;51.974;20.868;2023-08-20T12:34:24;33.90;1.00
38938;DHT22;24727;51.974;20.868;2023-08-20T12:36:51;33.70;1.00
38938;DHT22;24727;51.974;20.868;2023-08-20T12:39:17;32.70;1.00
38938;DHT22;24727;51.974;20.868;2023-08-20T12:41:44;31.80;1.00
38938;DHT22;24727;51.974;20.868;2023-08-20T12:44:10;31.80;1.00
38938;DHT22;24727;51.974;20.868;2023-08-20T12:46:36;32.20;1.00
38938;DHT22;24727;51.974;20.868;2023-08-20T12:49:02;32.10;1.00
38938;DHT22;24727;51.974;20.868;2023-08-20T12:51:28;31.50;1.00
38938;DHT22;24727;51.974;20.868;2023-08-20T12:53:54;31.50;1.00
38938;DHT22;24727;51.974;20.868;2023-08-20T12:56:22;32.40;1.00
38938;DHT22;24727;51.974;20.868;2023-08-20T12:58:53;32.70;1.00
38938;DHT22;24727;51.974;20.868;2023-08-20T13:01:21;33.00;1.00
38938;DHT22;24727;51.974;20.868;2023-08-20T13:03:47;32.30;1.00
38938;DHT22;24727;51.974;20.868;2023-08-20T13:06:17;31.40;1.00
38938;DHT22;24727;51.974;20.868;2023-08-20T13:08:43;30.80;1.00
38938;DHT22;24727;51.974;20.868;2023-08-20T13:11:13;31.20;1.00
38938;DHT22;24727;51.974;20.868;2023-08-20T13:13:42;31.20;1.00
38938;DHT22;24727;51.974;20.868;2023-08-20T13:16:09;31.00;1.00
38938;DHT22;24727;51.974;20.868;2023-08-20T13:18:37;30.70;1.00
38938;DHT22;24727;51.974;20.868;2023-08-20T13:21:09;30.50;1.00
38938;DHT22;24727;51.974;20.868;2023-08-20T13:23:37;30.60;1.00
38938;DHT22;24727;51.974;20.868;2023-08-20T13:26:04;30.50;1.00
38938;DHT22;24727;51.974;20.868;2023-08-20T13:28:31;30.60;1.00
38938;DHT22;24727;51.974;20.868;2023-08-20T13:30:57;30.70;1.00
38938;DHT22;24727;51.974;20.868;2023-08-20T13:33:25;30.70;1.00
38938;DHT22;24727;51.974;20.868;2023-08-20T13:35:51;30.70;1.00
38938;DHT22;24727;51.974;20.868;2023-08-20T13:38:19;30.60;1.00
38938;DHT22;24727;51.974;20.868;2023-08-20T13:40:48;31.00;1.00
38938;DHT22;24727;51.974;20.868;2023-08-20T13:43:15;31.70;1.00
38938;DHT22;24727;51.974;20.868;2023-08-20T13:45:42;31.70;1.00
38938;DHT22;24727;51.974;20.868;2023-08-20T13:48:08;31.30;1.00
38938;DHT22;24727;51.974;20.868;2023-08-20T13:50:34;31.30;1.00
38938;DHT22;24727;51.974;20.868;2023-08-20T13:53:00;31.20;1.00
38938;DHT22;24727;51.974;20.868;2023-08-20T13:55:26;30.90;1.00
38938;DHT22;24727;51.974;20.868;2023-08-20T13:57:52;30.60;1.00
38938;DHT22;24727;51.974;20.868;2023-08-20T14:00:19;30.60;1.00
38938;DHT22;24727;51.974;20.868;2023-08-20T14:02:45;30.70;1.00
38938;DHT22;24727;51.974;20.868;2023-08-20T14:05:13;30.60;1.00
38938;DHT22;24727;51.974;20.868;2023-08-20T14:07:40;30.50;1.00
38938;DHT22;24727;51.974;20.868;2023-08-20T14:10:10;30.60;1.00
38938;DHT22;24727;51.974;20.868;2023-08-20T14:12:42;30.60;1.00
38938;DHT22;24727;51.974;20.868;2023-08-20T14:15:09;30.70;1.00
38938;DHT22;24727;51.974;20.868;2023-08-20T14:17:36;30.60;1.00
38938;DHT22;24727;51.974;20.868;2023-08-20T14:20:03;30.60;1.00
38938;DHT22;24727;51.974;20.868;2023-08-20T14:22:29;30.50;1.00
38938;DHT22;24727;51.974;20.868;2023-08-20T14:24:55;30.60;1.00
38938;DHT22;24727;51.974;20.868;2023-08-20T14:27:23;30.40;1.00
38938;DHT22;24727;51.974;20.868;2023-08-20T14:29:50;30.50;1.00
38938;DHT22;24727;51.974;20.868;2023-08-20T14:32:16;30.40;1.00
38938;DHT22;24727;51.974;20.868;2023-08-20T14:34:42;30.40;1.00
38938;DHT22;24727;51.974;20.868;2023-08-20T14:37:10;30.50;1.00
38938;DHT22;24727;51.974;20.868;2023-08-20T14:39:40;30.40;1.00
38938;DHT22;24727;51.974;20.868;2023-08-20T14:42:06;30.30;1.00
38938;DHT22;24727;51.974;20.868;2023-08-20T14:44:32;30.30;1.00
38938;DHT22;24727;51.974;20.868;2023-08-20T14:46:59;30.30;1.00
38938;DHT22;24727;51.974;20.868;2023-08-20T14:49:25;30.30;1.00
38938;DHT22;24727;51.974;20.868;2023-08-20T14:51:53;30.40;1.00
38938;DHT22;24727;51.974;20.868;2023-08-20T14:54:19;30.40;1.00
38938;DHT22;24727;51.974;20.868;2023-08-20T14:56:46;30.40;1.00
38938;DHT22;24727;51.974;20.868;2023-08-20T14:59:12;30.30;1.00
38938;DHT22;24727;51.974;20.868;2023-08-20T15:01:38;30.10;1.00
38938;DHT22;24727;51.974;20.868;2023-08-20T15:04:04;30.00;1.00
38938;DHT22;24727;51.974;20.868;2023-08-20T15:06:30;29.90;1.00
38938;DHT22;24727;51.974;20.868;2023-08-20T15:08:56;29.80;1.00
38938;DHT22;24727;51.974;20.868;2023-08-20T15:11:23;29.80;1.00
38938;DHT22;24727;51.974;20.868;2023-08-20T15:13:49;29.90;1.00
38938;DHT22;24727;51.974;20.868;2023-08-20T15:16:17;29.90;1.00
38938;DHT22;24727;51.974;20.868;2023-08-20T15:18:43;30.00;1.00
38938;DHT22;24727;51.974;20.868;2023-08-20T15:21:09;29.90;1.00
38938;DHT22;24727;51.974;20.868;2023-08-20T15:23:36;30.00;1.00
38938;DHT22;24727;51.974;20.868;2023-08-20T15:26:04;30.00;1.00
38938;DHT22;24727;51.974;20.868;2023-08-20T15:28:31;30.00;1.00
38938;DHT22;24727;51.974;20.868;2023-08-20T15:30:57;29.90;1.00
38938;DHT22;24727;51.974;20.868;2023-08-20T15:33:24;30.00;1.00
38938;DHT22;24727;51.974;20.868;2023-08-20T15:35:52;30.00;1.00
38938;DHT22;24727;51.974;20.868;2023-08-20T15:38:19;30.00;1.00
38938;DHT22;24727;51.974;20.868;2023-08-20T15:40:45;30.10;1.00
38938;DHT22;24727;51.974;20.868;2023-08-20T15:43:13;30.00;1.00